Time;durP1;ratioP1;P1;durP2;ratioP2;P2;SDS_P1;SDS_P2;PMS_P1;PMS_P2;Temp;Humidity;BMP_temperature;BMP_pressure;BME280_temperature;BME280_humidity;BME280_pressure;Samples;Min_cycle;Max_cycle;Signal;HPM_P1;HPM_P2
2022/11/22 00:01:16;;;;;;;78.83;42.15;;;;;;;3.14;87.67;99701.16;1829578;77;25270;-81
2022/11/22 00:03:43;;;;;;;83.03;42.95;;;;;;;3.11;87.67;99696.17;1812429;77;25865;-81
2022/11/22 00:06:09;;;;;;;78.12;42.05;;;;;;;3.12;87.83;99699.17;1830993;77;25877;-81
2022/11/22 00:08:35;;;;;;;78.57;41.58;;;;;;;3.14;87.94;99703.28;1815778;77;26914;-81
2022/11/22 00:11:01;;;;;;;78.15;41.85;;;;;;;3.15;87.96;99698.83;1808489;78;25720;-82
2022/11/22 00:13:28;;;;;;;77.75;40.90;;;;;;;3.17;87.99;99702.63;1797620;78;25836;-82
2022/11/22 00:16:03;;;;;;;78.22;40.52;;;;;;;3.18;87.96;99699.01;1765537;79;26344;-82
2022/11/22 00:18:29;;;;;;;79.35;42.53;;;;;;;3.20;87.98;99703.16;1823873;77;25819;-82
2022/11/22 00:20:56;;;;;;;80.90;41.28;;;;;;;3.22;87.91;99700.34;1822289;77;28638;-82
2022/11/22 00:23:22;;;;;;;85.25;42.98;;;;;;;3.23;87.88;99698.04;1824366;77;25542;-82
2022/11/22 00:25:49;;;;;;;78.62;40.85;;;;;;;3.23;87.81;99695.39;1794741;78;25796;-82
2022/11/22 00:28:15;;;;;;;81.97;43.23;;;;;;;3.22;87.85;99699.85;1777970;79;25859;-82
2022/11/22 00:30:41;;;;;;;74.87;42.30;;;;;;;3.23;87.91;99697.52;1809617;78;25902;-82
2022/11/22 00:33:07;;;;;;;82.62;44.40;;;;;;;3.24;87.95;99699.19;1819571;78;28257;-84
2022/11/22 00:35:34;;;;;;;76.42;41.63;;;;;;;3.25;87.81;99702.67;1819842;77;25788;-82
2022/11/22 00:38:00;;;;;;;82.65;43.85;;;;;;;3.25;87.84;99700.03;1824349;77;25676;-82
2022/11/22 00:40:26;;;;;;;82.53;43.92;;;;;;;3.24;87.86;99700.52;1832492;77;25855;-81
2022/11/22 00:42:52;;;;;;;76.15;40.28;;;;;;;3.24;87.83;99706.30;1822603;77;25790;-81
2022/11/22 00:45:19;;;;;;;70.87;39.73;;;;;;;3.22;87.78;99701.17;1813662;77;28661;-82
2022/11/22 00:47:45;;;;;;;77.27;40.95;;;;;;;3.20;87.85;99694.38;1830807;77;25834;-82
2022/11/22 00:50:11;;;;;;;72.40;38.78;;;;;;;3.21;87.97;99701.34;1827399;77;25761;-82
2022/11/22 00:52:38;;;;;;;69.87;38.30;;;;;;;3.22;87.94;99704.31;1795326;78;25848;-82
2022/11/22 00:55:05;;;;;;;74.82;40.52;;;;;;;3.22;87.91;99706.95;1785253;78;25996;-81
2022/11/22 00:57:31;;;;;;;82.10;41.18;;;;;;;3.22;87.83;99708.28;1802028;78;27926;-83
2022/11/22 00:59:57;;;;;;;79.30;41.65;;;;;;;3.22;87.89;99706.47;1834511;77;25282;-81
2022/11/22 01:02:23;;;;;;;74.07;39.23;;;;;;;3.23;87.86;99702.81;1822026;77;25765;-82
2022/11/22 01:04:52;;;;;;;63.90;36.60;;;;;;;3.23;87.86;99706.78;1810344;78;25885;-81
2022/11/22 01:07:18;;;;;;;74.77;39.58;;;;;;;3.23;87.90;99704.66;1813468;77;25697;-81
2022/11/22 01:09:44;;;;;;;69.35;38.98;;;;;;;3.24;87.89;99703.65;1825578;77;27432;-82
2022/11/22 01:12:10;;;;;;;67.87;38.25;;;;;;;3.24;87.88;99702.33;1827714;77;25820;-83
2022/11/22 01:14:37;;;;;;;75.83;39.95;;;;;;;3.25;87.92;99702.67;1797726;78;26004;-81
2022/11/22 01:17:03;;;;;;;75.50;41.45;;;;;;;3.24;87.84;99707.12;1821752;78;26428;-81
2022/11/22 01:19:29;;;;;;;70.95;39.67;;;;;;;3.25;87.89;99712.73;1817102;78;26490;-81
2022/11/22 01:21:56;;;;;;;70.57;38.00;;;;;;;3.25;87.80;99722.52;1803192;77;28263;-81
2022/11/22 01:24:22;;;;;;;70.75;39.13;;;;;;;3.19;87.70;99719.20;1821203;77;25899;-82
2022/11/22 01:26:49;;;;;;;67.90;36.50;;;;;;;3.17;87.83;99714.53;1806179;78;25865;-82
2022/11/22 01:29:15;;;;;;;66.85;37.85;;;;;;;3.16;87.87;99714.22;1794115;79;25904;-82
2022/11/22 01:31:41;;;;;;;68.05;36.95;;;;;;;3.11;87.80;99716.86;1812598;77;26507;-82
2022/11/22 01:34:07;;;;;;;72.22;37.80;;;;;;;3.10;87.83;99726.28;1809079;78;27454;-81
2022/11/22 01:36:34;;;;;;;66.57;35.13;;;;;;;3.06;87.93;99723.59;1828433;77;25893;-81
2022/11/22 01:39:00;;;;;;;67.58;36.80;;;;;;;3.05;88.00;99733.38;1795899;78;25730;-81
2022/11/22 01:41:26;;;;;;;65.50;36.15;;;;;;;3.05;88.11;99729.90;1793618;78;26484;-81
2022/11/22 01:43:53;;;;;;;61.25;34.85;;;;;;;3.04;88.08;99739.64;1824367;77;25826;-81
2022/11/22 01:46:37;;;;;;;68.35;36.50;;;;;;;3.01;87.96;99749.72;1818454;77;27442;-81
2022/11/22 01:49:17;;;;;;;63.73;34.67;;;;;;;2.97;88.16;99734.64;1814688;77;25740;-80
2022/11/22 01:51:48;;;;;;;66.60;36.55;;;;;;;3.01;88.43;99747.91;1788035;79;25283;-81
2022/11/22 01:54:21;;;;;;;67.22;36.38;;;;;;;3.02;88.40;99760.14;1777685;78;25785;-81
2022/11/22 01:56:53;;;;;;;63.30;35.92;;;;;;;3.05;88.46;99757.67;1790840;78;25898;-81
2022/11/22 01:59:24;;;;;;;68.83;37.30;;;;;;;3.08;88.52;99762.63;1814792;77;27448;-80
2022/11/22 02:01:52;;;;;;;67.35;37.88;;;;;;;3.09;88.45;99759.84;1804288;77;25784;-81
2022/11/22 02:04:20;;;;;;;69.45;37.70;;;;;;;3.11;88.54;99766.29;1822119;77;26382;-81
2022/11/22 02:06:58;;;;;;;67.30;36.90;;;;;;;3.13;88.58;99759.86;1827563;77;26425;-80
2022/11/22 02:09:25;;;;;;;71.80;38.67;;;;;;;3.14;88.51;99759.38;1809590;77;25298;-81
2022/11/22 02:11:55;;;;;;;75.83;39.40;;;;;;;3.14;88.52;99760.17;1820336;76;27982;-80
2022/11/22 02:14:25;;;;;;;75.90;40.30;;;;;;;3.16;88.42;99759.20;1806166;78;25785;-80
2022/11/22 02:16:51;;;;;;;77.15;39.75;;;;;;;3.16;88.45;99763.17;1817650;77;25843;-80
2022/11/22 02:19:40;;;;;;;77.62;39.48;;;;;;;3.18;88.43;99764.67;1822765;77;25844;-79
2022/11/22 02:22:21;;;;;;;76.33;40.28;;;;;;;3.18;88.41;99773.94;1816651;77;25737;-81
2022/11/22 02:25:17;;;;;;;65.52;36.60;;;;;;;3.19;88.45;99777.42;1818861;77;26790;-80
2022/11/22 02:27:43;;;;;;;69.75;38.48;;;;;;;3.19;88.42;99775.58;1804508;78;26594;-81
2022/11/22 02:30:10;;;;;;;71.77;38.63;;;;;;;3.19;88.41;99778.74;1824175;77;25817;-80
2022/11/22 02:32:37;;;;;;;94.07;43.75;;;;;;;3.20;88.41;99779.89;1810675;78;25914;-81
2022/11/22 02:35:17;;;;;;;99.75;42.83;;;;;;;3.20;88.31;99777.73;1813685;78;25915;-80
2022/11/22 02:37:44;;;;;;;106.00;48.73;;;;;;;3.13;88.26;99776.22;1786720;78;27620;-80
2022/11/22 02:40:14;;;;;;;109.67;50.33;;;;;;;3.10;88.43;99770.75;1810015;76;26441;-81
2022/11/22 02:42:46;;;;;;;105.35;47.80;;;;;;;3.08;88.64;99762.14;1821263;77;25803;-81
2022/11/22 02:45:12;;;;;;;125.85;52.20;;;;;;;3.10;88.71;99763.33;1827605;76;25782;-81
2022/11/22 02:47:38;;;;;;;136.30;54.38;;;;;;;3.09;88.71;99753.23;1788253;78;25751;-80
2022/11/22 02:50:06;;;;;;;138.55;54.58;;;;;;;3.10;88.88;99757.52;1822955;78;27454;-80
2022/11/22 02:52:32;;;;;;;148.75;58.05;;;;;;;3.09;88.85;99754.55;1822851;76;25907;-81
2022/11/22 02:54:58;;;;;;;148.15;56.75;;;;;;;3.08;88.89;99743.63;1830210;76;25763;-81
2022/11/22 02:57:25;;;;;;;159.18;58.40;;;;;;;3.05;88.82;99751.06;1826720;76;25868;-80
2022/11/22 02:59:51;;;;;;;162.10;59.53;;;;;;;3.02;88.86;99750.05;1820715;76;25696;-80
2022/11/22 03:02:17;;;;;;;152.50;58.78;;;;;;;2.99;88.92;99753.83;1818682;78;27444;-80
2022/11/22 03:04:44;;;;;;;150.05;58.75;;;;;;;2.98;89.00;99749.55;1819917;78;25690;-81
2022/11/22 03:07:10;;;;;;;157.50;56.00;;;;;;;2.99;89.14;99750.37;1818703;78;25899;-81
2022/11/22 03:09:36;;;;;;;174.60;61.55;;;;;;;2.97;89.05;99748.39;1820644;77;25742;-81
2022/11/22 03:12:03;;;;;;;180.15;62.00;;;;;;;2.95;89.13;99746.40;1792867;78;25841;-80
2022/11/22 03:14:29;;;;;;;175.57;61.95;;;;;;;2.93;89.20;99739.12;1793008;78;27507;-81
2022/11/22 03:16:55;;;;;;;163.80;58.85;;;;;;;2.96;89.35;99740.11;1823920;77;26008;-81
2022/11/22 03:19:22;;;;;;;167.15;58.33;;;;;;;2.94;89.29;99737.62;1824231;77;25917;-81
2022/11/22 03:21:48;;;;;;;178.75;60.67;;;;;;;2.95;89.19;99734.50;1816924;78;26543;-83
2022/11/22 03:24:14;;;;;;;164.07;57.93;;;;;;;2.90;89.16;99731.00;1797077;77;25849;-81
2022/11/22 03:26:47;;;;;;;155.82;52.40;;;;;;;2.88;89.07;99728.17;1806808;78;27449;-81
2022/11/22 03:29:15;;;;;;;181.93;60.55;;;;;;;2.82;88.80;99732.27;1800684;78;25743;-82
2022/11/22 03:31:41;;;;;;;168.80;57.75;;;;;;;2.66;88.67;99730.88;1784326;78;26166;-81
2022/11/22 03:34:10;;;;;;;160.75;56.65;;;;;;;2.60;88.74;99732.83;1807088;78;25916;-85
2022/11/22 03:36:37;;;;;;;157.10;57.80;;;;;;;2.56;88.89;99731.98;1834795;77;25948;-80
2022/11/22 03:39:03;;;;;;;174.65;59.35;;;;;;;2.52;89.03;99729.31;1827373;77;27438;-81
2022/11/22 03:41:29;;;;;;;170.20;60.48;;;;;;;2.54;89.33;99735.27;1794957;78;25854;-80
2022/11/22 03:43:56;;;;;;;158.22;56.33;;;;;;;2.56;89.48;99735.45;1818867;77;25978;-82
2022/11/22 03:46:23;;;;;;;145.72;53.52;;;;;;;2.60;89.45;99735.96;1785284;79;26896;-82
2022/11/22 03:48:49;;;;;;;147.57;55.58;;;;;;;2.61;89.35;99737.12;1828534;77;25899;-82
2022/11/22 03:51:15;;;;;;;156.35;53.83;;;;;;;2.63;89.29;99739.63;1840085;77;27477;-82
2022/11/22 03:53:42;;;;;;;149.12;58.85;;;;;;;2.61;89.16;99750.34;1818046;76;25723;-82
2022/11/22 03:56:08;;;;;;;164.15;55.23;;;;;;;2.63;89.22;99753.66;1796956;78;25787;-82
2022/11/22 03:58:35;;;;;;;149.15;52.38;;;;;;;2.66;89.19;99759.13;1779132;79;25894;-82
2022/11/22 04:01:01;;;;;;;147.62;55.00;;;;;;;2.69;89.20;99754.86;1779985;78;25804;-82
2022/11/22 04:03:28;;;;;;;144.57;52.67;;;;;;;2.69;89.16;99758.34;1803753;77;28240;-82
2022/11/22 04:05:54;;;;;;;141.28;52.10;;;;;;;2.71;89.13;99755.53;1822802;77;26102;-82
2022/11/22 04:08:20;;;;;;;143.62;51.90;;;;;;;2.73;89.01;99747.78;1818912;77;25967;-82
2022/11/22 04:10:50;;;;;;;137.32;52.00;;;;;;;2.73;88.90;99742.49;1831473;77;25836;-82
2022/11/22 04:13:17;;;;;;;143.52;52.93;;;;;;;2.72;88.80;99743.47;1817682;77;25826;-81
2022/11/22 04:15:44;;;;;;;142.00;55.10;;;;;;;2.72;88.76;99745.27;1797835;79;26914;-81
2022/11/22 04:18:12;;;;;;;162.70;55.45;;;;;;;2.71;88.76;99738.34;1817201;77;25783;-82
2022/11/22 04:23:25;;;;;;;146.35;52.38;;;;;;;2.69;88.86;99734.55;1792286;78;26623;-82
2022/11/22 04:25:53;;;;;;;140.88;51.95;;;;;;;2.71;88.85;99735.70;1787848;79;25755;-82
2022/11/22 04:28:23;;;;;;;139.22;52.78;;;;;;;2.72;88.92;99746.59;1803066;78;27605;-82
2022/11/22 04:33:36;;;;;;;151.95;54.30;;;;;;;2.75;88.89;99729.10;1803829;77;25771;-82
2022/11/22 04:36:02;;;;;;;174.53;56.98;;;;;;;2.75;88.88;99732.58;1818864;77;25916;-82
2022/11/22 04:38:29;;;;;;;159.45;56.95;;;;;;;2.76;89.00;99736.06;1792362;78;25712;-82
2022/11/22 04:40:55;;;;;;;146.93;55.52;;;;;;;2.76;89.01;99734.74;1809910;78;28302;-82
2022/11/22 04:46:11;;;;;;;147.02;53.30;;;;;;;2.76;88.96;99738.19;1798968;78;25763;-81
2022/11/22 04:48:38;;;;;;;163.05;55.00;;;;;;;2.77;88.87;99735.89;1807138;78;25785;-82
2022/11/22 04:53:51;;;;;;;171.40;58.48;;;;;;;2.74;88.99;99738.01;1806740;78;28266;-82
2022/11/22 04:56:18;;;;;;;181.28;56.63;;;;;;;2.75;89.06;99753.73;1806886;77;25296;-82
2022/11/22 04:58:44;;;;;;;160.75;53.50;;;;;;;2.75;89.22;99748.45;1830602;77;25827;-81
2022/11/22 05:01:10;;;;;;;171.82;61.58;;;;;;;2.74;89.09;99744.13;1831257;77;26491;-82
2022/11/22 05:03:37;;;;;;;168.87;57.30;;;;;;;2.73;89.11;99750.91;1807771;78;26369;-81
2022/11/22 05:06:05;;;;;;;177.53;59.35;;;;;;;2.71;89.16;99749.75;1800733;78;27443;-82
2022/11/22 05:08:31;;;;;;;169.70;56.73;;;;;;;2.68;89.23;99749.22;1798372;78;25759;-81
2022/11/22 05:10:58;;;;;;;170.95;55.30;;;;;;;2.64;89.35;99753.16;1805889;77;25963;-82
2022/11/22 05:13:34;;;;;;;176.68;57.60;;;;;;;2.62;89.40;99757.78;1816998;77;25916;-81
2022/11/22 05:16:03;;;;;;;178.10;58.17;;;;;;;2.59;89.52;99768.69;1819940;77;26093;-82
2022/11/22 05:18:31;;;;;;;196.00;61.02;;;;;;;2.57;89.71;99775.43;1819701;76;27453;-82
2022/11/22 05:20:59;;;;;;;191.07;60.05;;;;;;;2.55;89.91;99774.77;1821090;77;26510;-82
2022/11/22 05:26:10;;;;;;;164.52;56.28;;;;;;;2.56;90.14;99775.59;1804242;77;25847;-81
2022/11/22 05:28:38;;;;;;;177.75;57.95;;;;;;;2.57;90.30;99773.27;1820496;77;25789;-81
2022/11/22 05:31:13;;;;;;;187.80;60.85;;;;;;;2.58;90.35;99775.78;1821558;77;27522;-81
2022/11/22 05:33:42;;;;;;;190.55;57.38;;;;;;;2.58;90.26;99778.91;1820122;77;25294;-81
2022/11/22 05:36:09;;;;;;;186.65;58.70;;;;;;;2.54;90.18;99782.37;1795049;78;25700;-83
2022/11/22 05:38:36;;;;;;;181.18;58.25;;;;;;;2.51;90.26;99786.63;1796324;78;25941;-82
2022/11/22 05:41:07;;;;;;;183.00;58.33;;;;;;;2.50;90.31;99792.08;1822488;77;25293;-83
2022/11/22 05:43:34;;;;;;;171.75;55.33;;;;;;;2.48;90.44;99795.37;1794903;78;28304;-82
2022/11/22 05:46:07;;;;;;;190.30;55.00;;;;;;;2.49;90.63;99803.63;1830969;76;25898;-82
2022/11/22 05:48:37;;;;;;;169.13;56.15;;;;;;;2.49;90.70;99804.95;1817607;77;25294;-82
2022/11/22 05:51:09;;;;;;;169.65;54.15;;;;;;;2.49;90.70;99803.14;1822866;76;25821;-83
2022/11/22 05:53:37;;;;;;;182.97;57.05;;;;;;;2.46;90.60;99802.11;1823026;78;26059;-82
2022/11/22 05:56:14;;;;;;;178.53;55.10;;;;;;;2.44;90.79;99800.63;1832543;77;27403;-83
2022/11/22 05:58:40;;;;;;;187.97;55.12;;;;;;;2.41;90.70;99789.88;1832527;77;25771;-82
2022/11/22 06:01:17;;;;;;;183.15;54.70;;;;;;;2.35;90.83;99791.81;1833372;76;26426;-82
2022/11/22 06:03:43;;;;;;;170.87;49.77;;;;;;;2.28;90.77;99785.00;1834649;77;25844;-82
2022/11/22 06:06:11;;;;;;;176.40;54.40;;;;;;;2.19;90.97;99793.00;1835477;76;25910;-82
2022/11/22 06:08:40;;;;;;;174.93;53.63;;;;;;;2.16;91.34;99791.48;1824167;77;27452;-83
2022/11/22 06:11:11;;;;;;;180.03;55.75;;;;;;;2.16;91.47;99790.16;1823202;76;25787;-81
2022/11/22 06:13:40;;;;;;;184.50;58.23;;;;;;;2.14;91.52;99789.48;1817960;77;25569;-82
2022/11/22 06:16:08;;;;;;;185.18;57.17;;;;;;;2.13;91.75;99785.20;1821480;77;25855;-82
2022/11/22 06:18:35;;;;;;;181.57;54.58;;;;;;;2.11;91.73;99788.98;1808710;77;25739;-82
2022/11/22 06:21:09;;;;;;;178.87;55.35;;;;;;;2.08;91.92;99791.42;1822416;77;27446;-81
2022/11/22 06:23:35;;;;;;;190.82;57.58;;;;;;;2.08;92.11;99780.86;1814846;77;25863;-82
2022/11/22 06:26:08;;;;;;;186.05;58.58;;;;;;;2.07;92.19;99788.95;1806854;77;25898;-82
2022/11/22 06:28:36;;;;;;;207.07;58.17;;;;;;;2.07;92.32;99790.27;1812163;77;26513;-82
2022/11/22 06:31:06;;;;;;;181.50;57.20;;;;;;;2.06;92.34;99790.75;1817274;77;25837;-82
2022/11/22 06:33:33;;;;;;;189.82;58.48;;;;;;;2.03;92.42;99791.04;1807361;77;28271;-81
2022/11/22 06:36:15;;;;;;;190.62;61.00;;;;;;;2.02;92.58;99793.84;1831603;77;25854;-82
2022/11/22 06:38:43;;;;;;;184.78;59.42;;;;;;;2.04;92.88;99801.96;1818545;77;26166;-82
2022/11/22 06:41:12;;;;;;;182.15;59.00;;;;;;;2.07;92.95;99804.31;1823686;77;25775;-81
2022/11/22 06:43:41;;;;;;;174.05;56.25;;;;;;;2.09;93.12;99800.19;1811365;77;25832;-81
2022/11/22 06:46:09;;;;;;;176.30;55.38;;;;;;;2.11;93.21;99799.55;1829725;77;27510;-82
2022/11/22 06:48:38;;;;;;;178.72;58.08;;;;;;;2.13;93.25;99804.19;1820903;77;26151;-81
2022/11/22 06:51:11;;;;;;;175.95;56.37;;;;;;;2.15;93.48;99805.70;1828945;77;25310;-82
2022/11/22 06:53:38;;;;;;;173.40;57.00;;;;;;;2.20;93.63;99807.88;1825520;77;26699;-83
2022/11/22 06:56:11;;;;;;;181.72;55.83;;;;;;;2.24;93.62;99806.59;1811792;77;26613;-82
2022/11/22 06:58:38;;;;;;;163.72;52.58;;;;;;;2.28;93.78;99806.13;1807243;78;27437;-81
2022/11/22 07:01:12;;;;;;;161.90;53.50;;;;;;;2.31;93.72;99804.48;1789458;78;25286;-83
2022/11/22 07:03:40;;;;;;;155.90;49.95;;;;;;;2.33;93.77;99803.04;1835833;76;25776;-81
2022/11/22 07:06:08;;;;;;;150.90;50.38;;;;;;;2.33;93.89;99809.64;1825930;77;25853;-82
2022/11/22 07:08:36;;;;;;;135.40;48.63;;;;;;;2.37;93.99;99814.12;1792898;77;25912;-81
2022/11/22 07:11:11;;;;;;;142.80;53.95;;;;;;;2.36;94.00;99813.28;1834266;77;28218;-81
2022/11/22 07:13:38;;;;;;;153.53;50.85;;;;;;;2.39;94.18;99822.23;1829540;77;25889;-82
2022/11/22 07:16:08;;;;;;;138.95;53.60;;;;;;;2.39;94.25;99828.00;1817950;78;25703;-82
2022/11/22 07:18:35;;;;;;;138.70;55.63;;;;;;;2.41;94.46;99826.88;1818563;77;25784;-81
2022/11/22 07:21:10;;;;;;;137.40;48.33;;;;;;;2.43;94.61;99824.91;1798327;77;25849;-82
2022/11/22 07:23:39;;;;;;;116.97;43.55;;;;;;;2.48;94.70;99828.41;1802434;78;27453;-81
2022/11/22 07:26:05;;;;;;;131.55;45.58;;;;;;;2.51;94.72;99828.92;1834020;77;25957;-82
2022/11/22 07:28:31;;;;;;;125.00;46.55;;;;;;;2.55;94.76;99837.37;1804894;78;25716;-83
2022/11/22 07:31:01;;;;;;;105.65;44.18;;;;;;;2.55;94.73;99843.97;1829928;76;25841;-83
2022/11/22 07:33:28;;;;;;;117.35;45.15;;;;;;;2.54;94.64;99839.20;1817584;77;25854;-82
2022/11/22 07:35:55;;;;;;;126.65;49.10;;;;;;;2.55;94.70;99847.45;1808095;78;27466;-82
2022/11/22 07:38:21;;;;;;;119.00;43.90;;;;;;;2.56;94.63;99848.30;1782120;79;25830;-81
2022/11/22 07:40:47;;;;;;;121.50;48.10;;;;;;;2.57;94.72;99845.97;1830563;77;25784;-82
2022/11/22 07:43:14;;;;;;;119.70;45.10;;;;;;;2.57;94.77;99848.13;1822465;77;25837;-81
2022/11/22 07:45:40;;;;;;;119.37;47.88;;;;;;;2.61;94.89;99845.52;1815785;78;25962;-83
2022/11/22 07:48:06;;;;;;;121.25;48.30;;;;;;;2.64;94.89;99848.34;1817917;78;27465;-82
2022/11/22 07:50:33;;;;;;;115.05;45.40;;;;;;;2.66;94.92;99851.66;1811796;77;25725;-82
2022/11/22 07:52:59;;;;;;;135.28;51.53;;;;;;;2.66;94.79;99855.14;1811596;77;25766;-80
2022/11/22 07:55:27;;;;;;;136.85;50.25;;;;;;;2.67;94.92;99848.05;1817323;77;26141;-82
2022/11/22 07:57:53;;;;;;;145.32;62.20;;;;;;;2.71;95.36;99842.30;1813915;77;25779;-81
2022/11/22 08:00:20;;;;;;;141.82;53.08;;;;;;;2.74;95.30;99843.30;1822065;77;27273;-81
2022/11/22 08:02:46;;;;;;;156.00;69.85;;;;;;;2.76;95.01;99843.16;1803501;78;25794;-82
2022/11/22 08:05:13;;;;;;;135.03;55.35;;;;;;;2.76;94.86;99851.09;1822433;77;25776;-82
2022/11/22 08:07:47;;;;;;;143.68;64.42;;;;;;;2.73;94.82;99846.94;1795856;78;25796;-83
2022/11/22 08:10:14;;;;;;;128.78;52.58;;;;;;;2.73;94.96;99852.23;1782993;78;25753;-81
2022/11/22 08:12:41;;;;;;;133.55;57.43;;;;;;;2.75;95.09;99855.55;1781662;79;28251;-81
2022/11/22 08:15:08;;;;;;;135.35;51.77;;;;;;;2.75;95.00;99853.38;1798080;78;26267;-81
2022/11/22 08:17:35;;;;;;;121.67;45.20;;;;;;;2.74;95.08;99844.61;1811877;78;26501;-82
2022/11/22 08:20:01;;;;;;;136.30;52.33;;;;;;;2.78;95.23;99838.03;1786306;78;26464;-82
2022/11/22 08:22:27;;;;;;;119.77;45.25;;;;;;;2.79;95.17;99834.89;1820099;77;25797;-82
2022/11/22 08:24:54;;;;;;;134.00;49.45;;;;;;;2.76;95.09;99838.67;1792413;78;27442;-82
2022/11/22 08:27:20;;;;;;;135.78;49.73;;;;;;;2.76;94.98;99843.16;1789678;78;25717;-81
2022/11/22 08:29:46;;;;;;;147.87;56.37;;;;;;;2.76;95.28;99846.61;1828084;77;25801;-81
2022/11/22 08:32:13;;;;;;;137.50;51.23;;;;;;;2.79;95.38;99860.86;1837324;76;25739;-81
2022/11/22 08:34:39;;;;;;;141.28;50.17;;;;;;;2.80;95.32;99863.02;1820205;77;25358;-82
2022/11/22 08:37:06;;;;;;;134.57;48.25;;;;;;;2.81;95.40;99866.82;1823591;77;27467;-82
2022/11/22 08:39:32;;;;;;;133.45;48.52;;;;;;;2.84;95.38;99864.36;1818140;78;25840;-81
2022/11/22 08:41:58;;;;;;;155.60;57.60;;;;;;;2.84;95.37;99864.36;1828553;77;26018;-80
2022/11/22 08:44:25;;;;;;;135.75;50.78;;;;;;;2.87;95.49;99866.19;1796346;78;25766;-82
2022/11/22 08:46:51;;;;;;;157.22;60.43;;;;;;;2.90;95.57;99863.25;1798960;78;25765;-82
2022/11/22 08:49:17;;;;;;;152.30;56.18;;;;;;;2.93;95.40;99860.27;1825408;76;27463;-81
2022/11/22 08:51:45;;;;;;;155.15;58.90;;;;;;;2.96;95.52;99856.01;1814505;76;26323;-80
2022/11/22 08:54:12;;;;;;;165.57;65.12;;;;;;;2.99;95.35;99854.88;1814163;77;25857;-82
2022/11/22 08:56:38;;;;;;;151.35;59.03;;;;;;;3.00;95.31;99863.13;1819310;77;25884;-85
2022/11/22 08:59:05;;;;;;;142.53;56.80;;;;;;;3.03;95.46;99859.70;1821598;77;25810;-88
2022/11/22 09:01:32;;;;;;;146.72;60.03;;;;;;;3.07;95.56;99862.84;1815100;77;27505;-88
2022/11/22 09:04:02;;;;;;;140.25;56.45;;;;;;;3.13;95.50;99863.05;1822147;76;25860;-85
2022/11/22 09:06:28;;;;;;;147.17;53.05;;;;;;;3.18;95.35;99844.55;1786599;79;26470;-87
2022/11/22 09:08:55;;;;;;;132.18;48.17;;;;;;;3.19;95.13;99839.61;1785662;76;26645;-84
2022/11/22 09:11:22;;;;;;;175.45;82.37;;;;;;;3.20;95.15;99836.79;1802789;77;26447;-84
2022/11/22 09:13:48;;;;;;;152.05;59.58;;;;;;;3.20;94.97;99843.41;1819799;77;28330;-84
2022/11/22 09:16:18;;;;;;;141.05;60.85;;;;;;;3.19;94.69;99844.90;1835153;77;25875;-81
2022/11/22 09:18:47;;;;;;;146.10;67.50;;;;;;;3.21;94.88;99847.70;1810832;77;25519;-81
2022/11/22 09:21:17;;;;;;;140.28;65.45;;;;;;;3.20;94.66;99841.25;1809570;77;25906;-82
2022/11/22 09:23:46;;;;;;;128.97;52.62;;;;;;;3.23;94.86;99845.72;1814033;77;26390;-82
2022/11/22 09:26:19;;;;;;;149.20;61.65;;;;;;;3.28;94.89;99847.41;1814300;78;27444;-81
2022/11/22 09:28:46;;;;;;;127.25;52.38;;;;;;;3.32;94.88;99851.39;1813714;77;25298;-82
2022/11/22 09:31:20;;;;;;;134.15;51.77;;;;;;;3.37;94.78;99853.56;1817061;77;26011;-81
2022/11/22 09:33:48;;;;;;;132.45;50.17;;;;;;;3.36;94.52;99850.08;1817672;77;25798;-82
2022/11/22 09:36:21;;;;;;;121.62;51.77;;;;;;;3.39;94.72;99855.55;1813692;77;25806;-81
2022/11/22 09:38:50;;;;;;;135.20;58.83;;;;;;;3.43;94.74;99858.22;1818700;77;28460;-88
2022/11/22 09:41:49;;;;;;;143.62;59.27;;;;;;;3.47;94.69;99859.06;1807628;77;25846;-85
2022/11/22 09:44:53;;;;;;;132.25;52.65;;;;;;;3.54;94.84;99860.09;1819632;77;25912;-84
2022/11/22 09:47:47;;;;;;;128.10;55.10;;;;;;;3.58;94.63;99860.59;1799359;77;25799;-85
2022/11/22 09:50:31;;;;;;;127.15;50.80;;;;;;;3.62;94.49;99856.63;1802180;78;25643;-84
2022/11/22 09:53:02;;;;;;;115.15;45.83;;;;;;;3.65;94.27;99869.56;1794218;78;27447;-85
2022/11/22 09:55:43;;;;;;;122.07;48.42;;;;;;;3.62;93.80;99876.01;1820293;77;25890;-84
2022/11/22 09:58:32;;;;;;;155.85;68.20;;;;;;;3.62;93.73;99871.20;1803785;78;25778;-83
2022/11/22 10:01:26;;;;;;;172.90;69.95;;;;;;;3.62;93.69;99869.39;1812819;78;26530;-85
2022/11/22 10:04:04;;;;;;;200.68;81.70;;;;;;;3.63;93.41;99880.33;1824980;77;25881;-87
2022/11/22 10:06:41;;;;;;;114.03;48.05;;;;;;;3.64;93.69;99880.65;1811972;77;27469;-86
2022/11/22 10:09:33;;;;;;;113.12;47.33;;;;;;;3.68;93.58;99883.30;1824899;76;25884;-86
2022/11/22 10:12:25;;;;;;;117.72;50.08;;;;;;;3.77;94.00;99879.70;1823216;77;25690;-90
2022/11/22 10:15:20;;;;;;;115.65;44.73;;;;;;;3.86;94.09;99879.23;1813478;77;26327;-84
2022/11/22 10:17:53;;;;;;;107.52;43.48;;;;;;;3.90;93.64;99869.48;1789743;78;25809;-85
2022/11/22 10:20:27;;;;;;;98.35;41.48;;;;;;;3.95;93.67;99877.44;1799286;78;27440;-82
2022/11/22 10:22:55;;;;;;;107.32;42.75;;;;;;;3.99;93.47;99881.41;1818812;77;26034;-82
2022/11/22 10:25:42;;;;;;;103.35;41.48;;;;;;;4.02;93.19;99886.41;1794341;78;26304;-82
2022/11/22 10:28:18;;;;;;;102.32;43.35;;;;;;;4.06;93.11;99885.08;1799647;78;26297;-83
2022/11/22 10:30:59;;;;;;;107.92;49.60;;;;;;;4.09;93.08;99886.91;1835144;76;26141;-81
2022/11/22 10:33:34;;;;;;;102.00;42.95;;;;;;;4.13;92.78;99886.10;1806742;77;27456;-81
2022/11/22 10:36:33;;;;;;;104.45;43.48;;;;;;;4.16;92.69;99891.06;1817432;77;25774;-80
2022/11/22 10:39:20;;;;;;;97.85;42.33;;;;;;;4.20;92.87;99886.59;1812068;77;25804;-79
2022/11/22 10:42:01;;;;;;;99.55;42.58;;;;;;;4.26;92.76;99884.61;1812111;77;25903;-81
2022/11/22 10:44:42;;;;;;;95.10;41.23;;;;;;;4.27;92.46;99884.95;1812012;77;25601;-80
2022/11/22 10:47:26;;;;;;;133.47;66.85;;;;;;;4.25;92.16;99879.48;1808519;77;28253;-80
2022/11/22 10:50:09;;;;;;;110.37;52.23;;;;;;;4.28;92.23;99881.78;1822597;77;25885;-83
2022/11/22 10:53:10;;;;;;;98.20;48.05;;;;;;;4.32;92.27;99871.22;1813482;78;25268;-79
2022/11/22 10:55:51;;;;;;;92.12;41.85;;;;;;;4.35;92.16;99870.38;1777476;78;25814;-80
2022/11/22 10:58:38;;;;;;;87.78;39.25;;;;;;;4.39;91.81;99866.89;1830018;77;25893;-81
2022/11/22 11:01:54;;;;;;;85.92;37.30;;;;;;;4.43;91.51;99872.19;1815523;77;27535;-81
2022/11/22 11:04:24;;;;;;;73.57;36.88;;;;;;;4.44;91.22;99869.88;1819842;77;25746;-79
2022/11/22 11:06:55;;;;;;;77.67;36.90;;;;;;;4.45;91.09;99863.08;1799339;78;25785;-80
2022/11/22 11:09:36;;;;;;;88.25;38.30;;;;;;;4.46;90.70;99860.78;1803165;78;26466;-80
2022/11/22 11:12:06;;;;;;;;;;;;;;;4.45;90.41;99870.20;1794646;78;26106;-82
2022/11/22 11:14:40;;;;;;;86.42;42.45;;;;;;;4.42;90.30;99857.30;1806873;78;27443;-81
2022/11/22 11:17:06;;;;;;;79.27;37.65;;;;;;;4.43;90.35;99858.44;1813047;77;26164;-81
2022/11/22 11:19:38;;;;;;;79.75;36.88;;;;;;;4.42;89.93;99858.62;1800446;78;25799;-82
2022/11/22 11:22:18;;;;;;;79.60;37.70;;;;;;;4.42;89.77;99857.30;1824004;77;25804;-79
2022/11/22 11:24:44;;;;;;;92.17;43.65;;;;;;;4.40;89.93;99844.70;1807702;78;25900;-80
2022/11/22 11:27:11;;;;;;;88.45;44.42;;;;;;;4.41;89.88;99845.02;1816108;77;27453;-80
2022/11/22 11:30:01;;;;;;;98.60;45.15;;;;;;;4.38;89.70;99847.53;1826996;77;25801;-80
2022/11/22 11:32:27;;;;;;;91.12;40.00;;;;;;;4.39;89.99;99839.89;1809731;78;25768;-79
2022/11/22 11:35:04;;;;;;;80.47;36.73;;;;;;;4.44;90.06;99840.23;1822253;77;26560;-79
2022/11/22 11:37:37;;;;;;;83.95;38.63;;;;;;;4.45;89.59;99839.22;1815492;77;26481;-80
2022/11/22 11:40:07;;;;;;;77.95;37.70;;;;;;;4.44;89.56;99837.58;1794584;78;27425;-81
2022/11/22 11:42:34;;;;;;;71.22;34.63;;;;;;;4.49;89.72;99845.84;1817657;77;26293;-80
2022/11/22 11:45:31;;;;;;;78.67;35.68;;;;;;;4.50;89.07;99842.70;1814182;77;26197;-80
2022/11/22 11:47:55;;;;;;;77.85;37.08;;;;;;;4.47;88.61;99836.42;1800304;77;25840;-80